createdAt,value
2019-05-09T00:00:40.851Z,75.91
2019-05-09T00:01:40.838Z,75.74
2019-05-09T00:02:40.814Z,76.31
2019-05-09T00:03:40.811Z,75.95
2019-05-09T00:04:40.817Z,76.25
2019-05-09T00:05:40.799Z,76.86
2019-05-09T00:06:42.994Z,76.76
2019-05-09T00:07:40.778Z,76.86
2019-05-09T00:08:40.762Z,76.96
2019-05-09T00:09:40.767Z,76.96
2019-05-09T00:10:41.979Z,77.47
2019-05-09T00:11:40.729Z,77.17
2019-05-09T00:12:40.722Z,77.67
2019-05-09T00:13:40.727Z,76.96
2019-05-09T00:14:40.723Z,77.06
2019-05-09T00:15:40.691Z,78.08
2019-05-09T00:16:40.670Z,78.08
2019-05-09T00:17:40.673Z,78.08
2019-05-09T00:18:40.675Z,78.19
2019-05-09T00:19:40.678Z,78.22
2019-05-09T00:20:40.634Z,78.63
2019-05-09T00:21:40.622Z,78.63
2019-05-09T00:22:40.616Z,78.83
2019-05-09T00:23:40.601Z,78.73
2019-05-09T00:24:40.611Z,78.93
2019-05-09T00:25:40.581Z,78.73
2019-05-09T00:26:40.573Z,78.89
2019-05-09T00:27:40.573Z,78.83
2019-05-09T00:28:40.550Z,78.80
2019-05-09T00:29:40.559Z,78.93
2019-05-09T00:30:40.531Z,79.34
2019-05-09T00:31:40.523Z,78.93
2019-05-09T00:32:40.508Z,79.44
2019-05-09T00:33:40.497Z,78.42
2019-05-09T00:34:40.480Z,79.03
2019-05-09T00:35:40.515Z,78.93
2019-05-09T00:36:40.495Z,78.73
2019-05-09T00:37:40.454Z,78.93
2019-05-09T00:38:40.454Z,78.73
2019-05-09T00:39:40.436Z,78.93
2019-05-09T00:40:53.047Z,78.42
2019-05-09T00:41:43.429Z,78.83
2019-05-09T00:42:40.401Z,79.44
2019-05-09T00:43:40.388Z,78.93
2019-05-09T00:44:40.384Z,78.83
2019-05-09T00:45:40.387Z,78.93
2019-05-09T00:46:40.359Z,79.14
2019-05-09T00:47:40.353Z,79.34
2019-05-09T00:48:40.333Z,79.34
2019-05-09T00:49:40.324Z,79.34
2019-05-09T00:50:40.332Z,78.83
2019-05-09T00:51:40.326Z,79.24
2019-05-09T00:52:40.296Z,78.93
2019-05-09T00:53:40.293Z,79.44
2019-05-09T00:54:40.267Z,78.93
2019-05-09T00:55:40.280Z,79.27
2019-05-09T00:56:40.261Z,79.24
2019-05-09T00:57:40.248Z,78.42
2019-05-09T00:58:40.234Z,79.03
2019-05-09T00:59:40.240Z,79.14
2019-05-09T01:00:40.207Z,78.83
2019-05-09T01:01:40.215Z,78.63
2019-05-09T01:02:40.186Z,78.73
2019-05-09T01:03:40.183Z,78.73
2019-05-09T01:04:40.171Z,78.05
2019-05-09T01:05:40.161Z,78.02
2019-05-09T01:06:40.179Z,78.22
2019-05-09T01:07:40.135Z,78.12
2019-05-09T01:08:40.125Z,77.91
2019-05-09T01:09:40.122Z,78.12
2019-05-09T01:10:40.118Z,78.22
2019-05-09T01:11:40.114Z,77.81
2019-05-09T01:12:40.084Z,78.02
2019-05-09T01:13:40.077Z,78.02
2019-05-09T01:14:40.053Z,78.12
2019-05-09T01:15:40.045Z,77.81
2019-05-09T01:16:40.051Z,78.02
2019-05-09T01:17:40.041Z,77.40
2019-05-09T01:18:40.021Z,77.61
2019-05-09T01:19:40.015Z,77.30
2019-05-09T01:20:40.000Z,77.61
2019-05-09T01:21:40.001Z,77.30
2019-05-09T01:22:39.984Z,77.51
2019-05-09T01:23:39.980Z,77.40
2019-05-09T01:24:39.998Z,77.81
2019-05-09T01:25:39.944Z,77.81
2019-05-09T01:26:39.962Z,77.20
2019-05-09T01:27:39.917Z,77.71
2019-05-09T01:28:39.919Z,78.12
2019-05-09T01:29:39.914Z,78.02
2019-05-09T01:30:39.894Z,77.91
2019-05-09T01:31:39.902Z,78.12
2019-05-09T01:32:39.882Z,78.32
2019-05-09T01:33:39.862Z,78.32
2019-05-09T01:34:39.854Z,78.12
2019-05-09T01:35:39.875Z,77.85
2019-05-09T01:36:39.842Z,78.12
2019-05-09T01:37:39.818Z,78.12
2019-05-09T01:38:39.806Z,78.36
2019-05-09T01:39:39.798Z,78.77
2019-05-09T01:40:39.795Z,78.97
2019-05-09T01:41:39.805Z,78.97
2019-05-09T01:42:39.765Z,79.07
2019-05-09T01:43:39.763Z,78.93
2019-05-09T01:44:39.766Z,78.93
2019-05-09T01:45:39.735Z,78.93
2019-05-09T01:46:39.733Z,78.77
2019-05-09T01:47:39.741Z,78.56
2019-05-09T01:48:39.696Z,78.87
2019-05-09T01:49:39.693Z,78.87
2019-05-09T01:50:39.685Z,78.93
2019-05-09T01:51:39.686Z,78.83
2019-05-09T01:52:39.667Z,78.73
2019-05-09T01:53:39.662Z,78.97
2019-05-09T01:54:39.639Z,78.87
2019-05-09T01:55:39.632Z,78.97
2019-05-09T01:56:39.639Z,78.73
2019-05-09T01:57:39.607Z,78.93
2019-05-09T01:58:39.596Z,78.22
2019-05-09T01:59:39.581Z,78.22
2019-05-09T02:00:39.571Z,78.22
2019-05-09T02:01:39.579Z,78.32
2019-05-09T02:02:39.566Z,78.66
2019-05-09T02:03:39.589Z,78.87
2019-05-09T02:04:39.543Z,78.46
2019-05-09T02:05:39.516Z,78.97
2019-05-09T02:06:39.520Z,78.77
2019-05-09T02:07:39.510Z,78.73
2019-05-09T02:08:39.489Z,78.83
2019-05-09T02:09:39.484Z,78.87
2019-05-09T02:10:39.470Z,77.91
2019-05-09T02:11:42.750Z,78.22
2019-05-09T02:12:40.444Z,78.22
2019-05-09T02:13:39.436Z,78.12
2019-05-09T02:14:39.426Z,78.12
2019-05-09T02:15:39.425Z,77.71
2019-05-09T02:16:39.432Z,77.71
2019-05-09T02:17:39.411Z,77.81
2019-05-09T02:18:39.397Z,77.81
2019-05-09T02:19:39.366Z,77.81
2019-05-09T02:20:39.362Z,77.81
2019-05-09T02:21:39.359Z,77.71
2019-05-09T02:22:39.382Z,77.71
2019-05-09T02:23:39.326Z,77.61
2019-05-09T02:24:39.317Z,77.20
2019-05-09T02:25:39.314Z,77.30
2019-05-09T02:26:39.302Z,77.30
2019-05-09T02:27:39.321Z,77.26
2019-05-09T02:28:39.285Z,76.45
2019-05-09T02:29:39.260Z,77.10
2019-05-09T02:30:39.265Z,76.90
2019-05-09T02:31:39.242Z,76.49
2019-05-09T02:32:39.248Z,76.90
2019-05-09T02:33:39.232Z,77.06
2019-05-09T02:34:39.220Z,76.90
2019-05-09T02:35:50.956Z,76.96
2019-05-09T02:36:40.196Z,76.49
2019-05-09T02:37:39.362Z,76.86
2019-05-09T02:38:39.399Z,77.06
2019-05-09T02:39:39.444Z,77.00
2019-05-09T02:40:39.486Z,76.76
2019-05-09T02:41:39.229Z,76.96
2019-05-09T02:42:39.769Z,76.76
2019-05-09T02:43:39.198Z,76.90
2019-05-09T02:44:39.573Z,76.90
2019-05-09T02:45:39.106Z,76.90
2019-05-09T02:46:39.086Z,77.00
2019-05-09T02:47:39.103Z,77.00
2019-05-09T02:48:39.072Z,76.69
2019-05-09T02:49:39.346Z,76.90
2019-05-09T02:50:39.041Z,76.79
2019-05-09T02:51:39.109Z,77.00
2019-05-09T02:52:39.845Z,76.49
2019-05-09T02:53:39.660Z,77.30
2019-05-09T02:54:39.389Z,77.51
2019-05-09T02:55:38.996Z,77.30
2019-05-09T02:56:38.974Z,77.61
2019-05-09T02:57:38.994Z,77.95
2019-05-09T02:58:38.992Z,77.55
2019-05-09T02:59:38.954Z,78.32
2019-05-09T03:00:39.698Z,78.22
2019-05-09T03:01:39.276Z,77.95
2019-05-09T03:02:38.927Z,78.26
2019-05-09T03:03:39.388Z,78.16
2019-05-09T03:04:39.231Z,78.05
2019-05-09T03:05:38.885Z,78.16
2019-05-09T03:06:39.223Z,78.56
2019-05-09T03:07:39.427Z,78.46
2019-05-09T03:08:38.846Z,78.36
2019-05-09T03:09:39.095Z,77.95
2019-05-09T03:10:38.820Z,78.26
2019-05-09T03:11:39.161Z,78.77
2019-05-09T03:12:39.913Z,78.77
2019-05-09T03:13:39.589Z,78.97
2019-05-09T03:14:38.782Z,78.77
2019-05-09T03:15:39.498Z,79.00
2019-05-09T03:16:39.883Z,79.21
2019-05-09T03:17:38.792Z,79.00
2019-05-09T03:18:39.039Z,79.21
2019-05-09T03:19:38.875Z,79.00
2019-05-09T03:20:39.354Z,79.00
2019-05-09T03:21:39.262Z,78.91
2019-05-09T03:22:39.586Z,79.11
2019-05-09T03:23:39.120Z,78.91
2019-05-09T03:24:39.534Z,79.32
2019-05-09T03:25:40.732Z,79.32
2019-05-09T03:26:38.774Z,79.52
2019-05-09T03:27:39.210Z,79.21
2019-05-09T03:28:38.941Z,79.32
2019-05-09T03:29:39.642Z,79.62
2019-05-09T03:30:39.813Z,79.62
2019-05-09T03:31:39.519Z,79.32
2019-05-09T03:32:38.912Z,79.32
2019-05-09T03:33:40.515Z,79.41
2019-05-09T03:34:38.571Z,79.41
2019-05-09T03:35:38.547Z,79.41
2019-05-09T03:36:38.681Z,79.62
2019-05-09T03:37:38.534Z,79.32
2019-05-09T03:38:38.538Z,79.82
2019-05-09T03:39:38.512Z,79.82
2019-05-09T03:40:38.503Z,79.82
2019-05-09T03:41:39.481Z,79.82
2019-05-09T03:42:43.591Z,79.52
2019-05-09T03:43:39.484Z,79.82
2019-05-09T03:44:38.692Z,79.72
2019-05-09T03:45:38.443Z,79.96
2019-05-09T03:46:38.544Z,79.72
2019-05-09T03:47:38.428Z,80.23
2019-05-09T03:48:38.437Z,79.66
2019-05-09T03:49:38.416Z,79.82
2019-05-09T03:50:38.397Z,79.62
2019-05-09T03:51:38.382Z,79.72
2019-05-09T03:52:38.375Z,79.93
2019-05-09T03:53:38.387Z,79.72
2019-05-09T03:54:38.346Z,79.82
2019-05-09T03:55:38.476Z,79.75
2019-05-09T03:56:38.324Z,79.72
2019-05-09T03:57:38.321Z,80.13
2019-05-09T03:58:38.676Z,80.23
2019-05-09T03:59:38.315Z,80.43
2019-05-09T04:00:38.282Z,79.96
2019-05-09T04:01:38.340Z,80.13
2019-05-09T04:02:38.405Z,80.13
2019-05-09T04:03:38.289Z,79.72
2019-05-09T04:04:38.466Z,79.62
2019-05-09T04:05:38.229Z,79.93
2019-05-09T04:06:39.112Z,79.82
2019-05-09T04:07:38.510Z,80.13
2019-05-09T04:08:38.228Z,80.13
2019-05-09T04:09:39.759Z,80.02
2019-05-09T04:10:38.575Z,79.72
2019-05-09T04:11:38.320Z,79.93
2019-05-09T04:12:52.783Z,79.89
2019-05-09T04:13:39.152Z,79.62
2019-05-09T04:14:38.163Z,79.41
2019-05-09T04:15:38.130Z,79.48
2019-05-09T04:16:38.186Z,79.07
2019-05-09T04:17:38.237Z,79.17
2019-05-09T04:18:40.272Z,78.97
2019-05-09T04:19:40.494Z,78.97
2019-05-09T04:20:38.068Z,78.87
2019-05-09T04:21:38.390Z,78.97
2019-05-09T04:22:38.557Z,78.97
2019-05-09T04:23:38.043Z,79.07
2019-05-09T04:24:38.345Z,78.87
2019-05-09T04:25:38.017Z,78.73
2019-05-09T04:26:38.169Z,78.53
2019-05-09T04:27:37.996Z,78.02
2019-05-09T04:28:39.863Z,77.91
2019-05-09T04:29:37.991Z,78.22
2019-05-09T04:30:37.970Z,78.32
2019-05-09T04:31:38.492Z,77.81
2019-05-09T04:32:37.943Z,78.22
2019-05-09T04:33:38.380Z,78.22
2019-05-09T04:34:38.217Z,78.22
2019-05-09T04:35:38.318Z,78.02
2019-05-09T04:36:37.908Z,78.12
2019-05-09T04:37:38.085Z,78.42
2019-05-09T04:38:39.933Z,78.63
2019-05-09T04:39:38.660Z,78.53
2019-05-09T04:41:38.859Z,78.73
2019-05-09T04:42:43.007Z,78.22
2019-05-09T04:43:39.788Z,78.32
2019-05-09T04:44:37.839Z,78.32
2019-05-09T04:45:41.650Z,77.67
2019-05-09T04:46:37.848Z,77.37
2019-05-09T04:47:39.361Z,77.47
2019-05-09T04:48:38.792Z,77.47
2019-05-09T04:49:40.863Z,77.91
2019-05-09T04:50:38.759Z,78.22
2019-05-09T04:51:39.378Z,78.02
2019-05-09T04:52:39.810Z,78.22
2019-05-09T04:53:39.911Z,78.32
2019-05-09T04:54:38.402Z,78.32
2019-05-09T04:55:37.736Z,78.12
2019-05-09T04:56:38.224Z,78.12
2019-05-09T04:57:38.236Z,77.37
2019-05-09T04:58:37.720Z,77.10
2019-05-09T04:59:37.681Z,77.47
2019-05-09T05:00:37.763Z,77.98
2019-05-09T05:01:38.915Z,77.71
2019-05-09T05:02:38.116Z,77.78
2019-05-09T05:03:37.682Z,77.67
2019-05-09T05:04:37.631Z,76.96
2019-05-09T05:05:40.125Z,77.57
2019-05-09T05:06:40.265Z,78.19
2019-05-09T05:07:37.765Z,78.42
2019-05-09T05:08:37.641Z,78.02
2019-05-09T05:09:38.089Z,78.02
2019-05-09T05:10:37.559Z,78.22
2019-05-09T05:11:38.334Z,78.49
2019-05-09T05:12:38.109Z,77.81
2019-05-09T05:13:38.394Z,78.22
2019-05-09T05:14:38.506Z,78.32
2019-05-09T05:15:37.820Z,78.22
2019-05-09T05:16:39.207Z,78.08
2019-05-09T05:17:37.831Z,78.22
2019-05-09T05:18:37.515Z,78.32
2019-05-09T05:19:38.380Z,78.02
2019-05-09T05:20:37.979Z,78.02
2019-05-09T05:21:37.886Z,78.63
2019-05-09T05:22:38.708Z,78.32
2019-05-09T05:23:38.099Z,78.02
2019-05-09T05:24:38.162Z,78.12
2019-05-09T05:25:38.278Z,78.19
2019-05-09T05:26:38.086Z,77.67
2019-05-09T05:27:38.216Z,77.47
2019-05-09T05:28:38.149Z,77.37
2019-05-09T05:29:38.296Z,76.72
2019-05-09T05:30:37.489Z,76.86
2019-05-09T05:31:38.825Z,76.21
2019-05-09T05:32:38.584Z,76.01
2019-05-09T05:33:38.238Z,75.81
2019-05-09T05:34:37.767Z,75.91
2019-05-09T05:35:37.647Z,75.81
2019-05-09T05:36:38.346Z,76.31
2019-05-09T05:37:38.641Z,76.31
2019-05-09T05:38:37.750Z,76.11
2019-05-09T05:39:37.607Z,76.31
2019-05-09T05:40:45.234Z,76.01
2019-05-09T05:41:38.222Z,76.52
2019-05-09T05:42:38.883Z,76.42
2019-05-09T05:43:44.087Z,76.15
2019-05-09T05:44:38.671Z,76.31
2019-05-09T05:45:37.572Z,75.67
2019-05-09T05:46:37.955Z,75.70
2019-05-09T05:47:37.949Z,75.81
2019-05-09T05:48:38.348Z,75.87
2019-05-09T05:49:38.494Z,75.67
2019-05-09T05:50:38.239Z,75.77
2019-05-09T05:51:38.012Z,75.98
2019-05-09T05:52:37.594Z,75.37
2019-05-09T05:53:38.054Z,75.06
2019-05-09T05:54:37.869Z,74.82
2019-05-09T05:55:37.985Z,74.65
2019-05-09T05:56:38.241Z,74.65
2019-05-09T05:57:38.559Z,75.77
2019-05-09T05:58:38.662Z,75.81
2019-05-09T05:59:40.634Z,75.77
2019-05-09T06:00:37.736Z,76.07
2019-05-09T06:01:38.205Z,75.70
2019-05-09T06:02:38.534Z,75.91
2019-05-09T06:03:37.675Z,75.91
2019-05-09T06:04:38.147Z,76.35
2019-05-09T06:05:38.342Z,76.11
2019-05-09T06:06:37.520Z,76.11
2019-05-09T06:07:37.779Z,76.35
2019-05-09T06:08:38.043Z,76.96
2019-05-09T06:09:37.930Z,76.15
2019-05-09T06:10:37.763Z,76.15
2019-05-09T06:11:38.456Z,76.04
2019-05-09T06:12:38.079Z,76.04
2019-05-09T06:13:37.958Z,76.25
2019-05-09T06:14:37.790Z,75.70
2019-05-09T06:15:37.876Z,75.60
2019-05-09T06:16:37.732Z,75.81
2019-05-09T06:17:37.955Z,75.09
2019-05-09T06:18:38.489Z,74.96
2019-05-09T06:19:37.936Z,74.85
2019-05-09T06:20:38.583Z,74.24
2019-05-09T06:21:37.497Z,74.35
2019-05-09T06:22:38.233Z,74.55
2019-05-09T06:23:37.446Z,74.55
2019-05-09T06:24:38.701Z,74.55
2019-05-09T06:25:38.963Z,73.54
2019-05-09T06:26:37.352Z,73.43
2019-05-09T06:27:37.568Z,73.91
2019-05-09T06:28:37.644Z,72.65
2019-05-09T06:29:38.668Z,72.75
2019-05-09T06:30:40.895Z,72.25
2019-05-09T06:31:37.601Z,72.17
2019-05-09T06:32:38.504Z,72.34
2019-05-09T06:33:44.890Z,71.36
2019-05-09T06:34:41.771Z,72.38
2019-05-09T06:35:37.923Z,71.26
2019-05-09T06:36:39.032Z,71.87
2019-05-09T06:37:38.326Z,72.28
2019-05-09T06:38:37.691Z,72.28
2019-05-09T06:39:37.795Z,72.28
2019-05-09T06:40:38.322Z,71.60
2019-05-09T06:41:37.909Z,72.48
2019-05-09T06:42:38.012Z,72.31
2019-05-09T06:43:39.428Z,72.08
2019-05-09T06:44:37.443Z,71.97
2019-05-09T06:45:39.254Z,71.87
2019-05-09T06:46:37.887Z,72.17
2019-05-09T06:47:38.132Z,71.36
2019-05-09T06:48:37.858Z,71.12
2019-05-09T06:49:37.659Z,71.06
2019-05-09T06:50:37.868Z,71.06
2019-05-09T06:51:38.735Z,71.47
2019-05-09T06:52:37.596Z,71.19
2019-05-09T06:53:38.029Z,71.36
2019-05-09T06:54:36.435Z,71.40
2019-05-09T06:55:38.577Z,71.57
2019-05-09T06:56:38.130Z,71.67
2019-05-09T06:57:40.130Z,71.57
2019-05-09T06:58:38.326Z,70.86
2019-05-09T06:59:38.170Z,70.55
2019-05-09T07:00:37.965Z,70.65
2019-05-09T07:01:37.608Z,70.75
2019-05-09T07:02:38.711Z,70.86
2019-05-09T07:03:37.485Z,70.96
2019-05-09T07:04:38.023Z,70.45
2019-05-09T07:05:38.661Z,70.21
2019-05-09T07:06:38.082Z,70.01
2019-05-09T07:07:37.412Z,69.57
2019-05-09T07:08:38.038Z,69.47
2019-05-09T07:09:38.327Z,69.47
2019-05-09T07:10:37.746Z,68.96
2019-05-09T07:11:38.111Z,68.62
2019-05-09T07:12:37.925Z,68.73
2019-05-09T07:13:38.207Z,67.94
2019-05-09T07:14:41.279Z,68.01
2019-05-09T07:15:37.687Z,68.01
2019-05-09T07:16:37.631Z,67.61
2019-05-09T07:17:38.575Z,67.38
2019-05-09T07:18:38.160Z,67.58
2019-05-09T07:19:38.280Z,66.97
2019-05-09T07:20:37.894Z,67.10
2019-05-09T07:21:37.584Z,67.30
2019-05-09T07:22:38.976Z,67.61
2019-05-09T07:23:37.344Z,67.61
2019-05-09T07:24:37.788Z,67.10
2019-05-09T07:25:37.779Z,67.20
2019-05-09T07:26:37.353Z,67.03
2019-05-09T07:27:36.100Z,66.93
2019-05-09T07:28:37.623Z,67.54
2019-05-09T07:29:37.603Z,67.24
2019-05-09T07:30:37.603Z,67.64
2019-05-09T07:31:37.902Z,67.54
2019-05-09T07:35:54.455Z,67.47
2019-05-09T07:36:54.426Z,66.36
2019-05-09T07:37:54.419Z,66.16
2019-05-09T07:38:54.437Z,66.56
2019-05-09T07:39:54.403Z,66.26
2019-05-09T07:40:54.394Z,66.63
2019-05-09T07:41:54.377Z,65.52
2019-05-09T07:42:54.368Z,65.52
2019-05-09T07:43:54.370Z,66.63
2019-05-09T07:44:54.368Z,65.92
2019-05-09T07:45:54.345Z,65.89
2019-05-09T07:46:54.331Z,65.79
2019-05-09T07:47:54.321Z,65.28
2019-05-09T07:48:54.301Z,65.39
2019-05-09T07:49:54.305Z,64.98
2019-05-09T07:50:54.306Z,65.28
2019-05-09T07:51:54.275Z,65.39
2019-05-09T07:52:54.266Z,64.88
2019-05-09T07:53:54.255Z,64.67
2019-05-09T07:54:54.252Z,64.24
2019-05-09T07:55:54.234Z,63.93
2019-05-09T07:56:54.223Z,63.83
2019-05-09T07:57:55.470Z,64.01
2019-05-09T07:58:54.205Z,63.83
2019-05-09T07:59:54.215Z,63.70
2019-05-09T08:00:54.175Z,63.60
2019-05-09T08:01:54.186Z,63.76
2019-05-09T08:02:54.152Z,64.88
2019-05-09T08:03:54.140Z,65.28
2019-05-09T08:04:54.169Z,64.67
2019-05-09T08:05:54.136Z,64.64
2019-05-09T08:06:54.117Z,64.75
2019-05-09T08:07:54.110Z,64.61
2019-05-09T08:08:54.090Z,64.07
2019-05-09T08:09:54.079Z,63.67
2019-05-09T08:10:54.087Z,63.17
2019-05-09T08:11:54.065Z,62.76
2019-05-09T08:12:54.047Z,63.17
2019-05-09T08:13:54.040Z,62.76
2019-05-09T08:15:07.676Z,63.50
2019-05-09T08:15:55.013Z,63.57
2019-05-09T08:16:54.010Z,63.78
2019-05-09T08:17:54.000Z,63.27
2019-05-09T08:18:54.955Z,63.04
2019-05-09T08:19:53.994Z,62.56
2019-05-09T08:20:53.960Z,61.85
2019-05-09T08:21:53.952Z,63.23
2019-05-09T08:22:58.688Z,63.70
2019-05-09T08:23:54.939Z,62.99
2019-05-09T08:24:53.940Z,62.46
2019-05-09T08:25:53.948Z,61.21
2019-05-09T08:26:53.900Z,61.62
2019-05-09T08:27:53.887Z,60.02
2019-05-09T08:28:53.889Z,59.78
2019-05-09T08:29:53.886Z,58.50
2019-05-09T08:30:53.863Z,59.00
2019-05-09T08:31:53.873Z,60.05
2019-05-09T08:32:53.831Z,60.68
2019-05-09T08:33:53.823Z,61.52
2019-05-09T08:34:53.983Z,61.92
2019-05-09T08:35:53.854Z,60.98
2019-05-09T08:36:53.821Z,61.49
2019-05-09T08:37:53.784Z,62.23
2019-05-09T08:38:53.775Z,61.95
2019-05-09T08:39:53.759Z,63.63
2019-05-09T08:40:53.780Z,64.54
2019-05-09T08:41:53.751Z,64.14
2019-05-09T08:42:53.731Z,63.63
2019-05-09T08:43:53.720Z,63.70
2019-05-09T08:44:53.703Z,64.01
2019-05-09T08:45:53.716Z,63.78
2019-05-09T08:46:53.683Z,63.78
2019-05-09T08:47:53.677Z,63.60
2019-05-09T08:48:53.668Z,63.40
2019-05-09T08:49:53.658Z,63.67
2019-05-09T08:50:53.664Z,63.70
2019-05-09T08:52:09.041Z,63.70
2019-05-09T08:52:54.628Z,65.15
2019-05-09T08:53:53.628Z,64.54
2019-05-09T08:54:53.597Z,65.15
2019-05-09T08:55:53.599Z,64.98
2019-05-09T08:56:53.610Z,65.05
2019-05-09T08:57:53.571Z,64.61
2019-05-09T08:58:53.557Z,63.47
2019-05-09T08:59:53.555Z,63.67
2019-05-09T09:00:53.593Z,63.13
2019-05-09T09:02:12.381Z,62.10
2019-05-09T09:02:54.524Z,61.56
2019-05-09T09:03:53.505Z,60.60
2019-05-09T09:04:53.496Z,59.86
2019-05-09T09:05:53.498Z,57.25
2019-05-09T09:06:53.483Z,55.26
2019-05-09T09:07:53.465Z,53.14
2019-05-09T09:08:53.462Z,52.72
2019-05-09T09:09:53.449Z,52.84
2019-05-09T09:10:53.441Z,53.70
2019-05-09T09:11:53.459Z,54.23
2019-05-09T09:12:53.402Z,54.73
2019-05-09T09:13:53.395Z,55.66
2019-05-09T09:14:53.392Z,55.56
2019-05-09T09:16:08.318Z,55.59
2019-05-09T09:16:54.377Z,55.49
2019-05-09T09:17:53.361Z,55.49
2019-05-09T09:18:53.395Z,56.22
2019-05-09T09:19:53.333Z,56.12
2019-05-09T09:20:53.337Z,55.39
2019-05-09T09:21:53.339Z,54.28
2019-05-09T09:22:53.303Z,54.25
2019-05-09T09:23:53.289Z,53.70
2019-05-09T09:24:53.288Z,53.27
2019-05-09T09:25:53.268Z,50.59
2019-05-09T09:26:53.263Z,51.59
2019-05-09T09:27:53.255Z,50.59
2019-05-09T09:28:53.241Z,51.19
2019-05-09T09:29:53.227Z,51.51
2019-05-09T09:30:53.220Z,51.66
2019-05-09T09:31:53.212Z,52.89
2019-05-09T09:32:53.195Z,53.63
2019-05-09T09:33:53.198Z,53.32
2019-05-09T09:34:53.185Z,54.15
2019-05-09T09:35:53.164Z,53.92
2019-05-09T09:36:53.980Z,52.84
2019-05-09T09:37:53.135Z,49.37
2019-05-09T09:38:53.125Z,49.18
2019-05-09T09:39:53.142Z,51.89
2019-05-09T09:40:53.108Z,53.02
2019-05-09T09:41:53.111Z,53.09
2019-05-09T09:42:53.989Z,52.87
2019-05-09T09:43:53.090Z,51.19
2019-05-09T09:44:53.062Z,49.71
2019-05-09T09:46:07.292Z,47.64
2019-05-09T09:46:54.515Z,47.31
2019-05-09T09:47:53.054Z,48.66
2019-05-09T09:48:53.019Z,48.57
2019-05-09T09:49:55.150Z,46.92
2019-05-09T09:50:52.996Z,47.44
2019-05-09T09:51:53.004Z,47.11
2019-05-09T09:52:55.183Z,47.17
2019-05-09T09:53:52.970Z,45.59
2019-05-09T09:54:52.961Z,46.09
2019-05-09T09:55:52.952Z,45.54
2019-05-09T09:56:52.953Z,48.21
2019-05-09T09:57:52.924Z,49.38
2019-05-09T09:58:52.945Z,50.93
2019-05-09T09:59:52.922Z,51.26
2019-05-09T10:00:52.908Z,51.68
2019-05-09T10:01:52.911Z,53.95
2019-05-09T10:02:52.871Z,54.30
2019-05-09T10:03:52.862Z,55.21
2019-05-09T10:04:52.857Z,55.31
2019-05-09T10:05:52.848Z,55.62
2019-05-09T10:06:53.242Z,56.42
2019-05-09T10:07:52.852Z,55.64
2019-05-09T10:08:52.823Z,57.45
2019-05-09T10:09:52.796Z,57.08
2019-05-09T10:10:52.790Z,57.18
2019-05-09T10:11:52.779Z,57.18
2019-05-09T10:12:52.773Z,56.83
2019-05-09T10:13:52.771Z,56.85
2019-05-09T10:14:52.749Z,58.40
2019-05-09T10:15:52.746Z,58.93
2019-05-09T10:16:52.732Z,59.14
2019-05-09T10:17:52.714Z,59.54
2019-05-09T10:18:52.713Z,59.47
2019-05-09T10:19:52.695Z,60.17
2019-05-09T10:20:52.678Z,59.56
2019-05-09T10:21:52.670Z,60.81
2019-05-09T10:23:00.616Z,61.11
2019-05-09T10:23:53.654Z,61.08
2019-05-09T10:24:52.652Z,60.07
2019-05-09T10:25:52.627Z,59.87
2019-05-09T10:26:52.621Z,60.27
2019-05-09T10:27:52.612Z,60.58
2019-05-09T10:28:52.607Z,60.27
2019-05-09T10:29:52.583Z,60.05
2019-05-09T10:30:52.569Z,59.51
2019-05-09T10:31:52.555Z,59.51
2019-05-09T10:32:52.562Z,59.81
2019-05-09T10:33:52.572Z,60.02
2019-05-09T10:34:52.529Z,58.80
2019-05-09T10:35:52.518Z,58.70
2019-05-09T10:36:52.513Z,58.50
2019-05-09T10:37:52.499Z,58.47
2019-05-09T10:38:52.492Z,58.78
2019-05-09T10:39:52.501Z,56.83
2019-05-09T10:40:53.450Z,56.30
2019-05-09T10:41:52.449Z,55.97
2019-05-09T10:42:52.439Z,55.64
2019-05-09T10:43:52.437Z,54.23
2019-05-09T10:44:52.445Z,54.61
2019-05-09T10:45:52.415Z,52.31
2019-05-09T10:46:56.756Z,50.51
2019-05-09T10:47:53.391Z,48.63
2019-05-09T10:48:52.378Z,47.28
2019-05-09T10:49:52.379Z,46.30
2019-05-09T10:50:54.536Z,44.35
2019-05-09T10:51:52.355Z,45.17
2019-05-09T10:52:52.337Z,44.67
2019-05-09T10:53:52.323Z,43.63
2019-05-09T10:54:52.359Z,43.45
2019-05-09T10:55:52.304Z,44.33
2019-05-09T10:56:52.325Z,42.57
2019-05-09T10:57:53.025Z,42.71
2019-05-09T10:58:52.277Z,44.89
2019-05-09T10:59:52.270Z,45.50
2019-05-09T11:00:52.271Z,45.21
2019-05-09T11:01:52.238Z,45.29
2019-05-09T11:02:52.228Z,44.87
2019-05-09T11:03:52.219Z,42.99
2019-05-09T11:04:52.214Z,44.51
2019-05-09T11:05:52.213Z,45.66
2019-05-09T11:06:52.186Z,46.28
2019-05-09T11:07:52.176Z,47.81
2019-05-09T11:08:52.183Z,48.46
2019-05-09T11:09:52.162Z,48.55
2019-05-09T11:10:52.173Z,49.70
2019-05-09T11:11:52.137Z,50.33
2019-05-09T11:12:52.128Z,51.06
2019-05-09T11:13:52.112Z,52.51
2019-05-09T11:14:52.113Z,53.32
2019-05-09T11:15:52.159Z,54.05
2019-05-09T11:17:06.776Z,55.19
2019-05-09T11:17:53.074Z,56.25
2019-05-09T11:18:52.066Z,58.60
2019-05-09T11:19:52.085Z,59.87
2019-05-09T11:20:52.037Z,61.82
2019-05-09T11:21:52.038Z,62.23
2019-05-09T11:22:52.027Z,63.34
2019-05-09T11:23:52.011Z,64.76
2019-05-09T11:24:51.996Z,65.50
2019-05-09T11:25:51.981Z,66.44
2019-05-09T11:26:51.988Z,67.68
2019-05-09T11:28:06.868Z,68.52
2019-05-09T11:28:52.956Z,70.08
2019-05-09T11:29:51.951Z,69.78
2019-05-09T11:30:51.980Z,70.89
2019-05-09T11:31:51.951Z,70.18
2019-05-09T11:32:51.911Z,70.89
2019-05-09T11:33:51.895Z,69.40
2019-05-09T11:34:52.005Z,68.59
2019-05-09T11:35:51.908Z,67.88
2019-05-09T11:36:52.059Z,67.68
2019-05-09T11:37:51.877Z,68.08
2019-05-09T11:38:51.894Z,67.65
2019-05-09T11:39:51.831Z,66.63
2019-05-09T11:40:51.824Z,67.11
2019-05-09T11:41:51.818Z,68.90
2019-05-09T11:42:51.822Z,63.93
2019-05-09T11:43:51.793Z,63.60
2019-05-09T11:44:51.787Z,63.67
2019-05-09T11:45:51.839Z,63.01
2019-05-09T11:46:51.765Z,63.08
2019-05-09T11:47:51.793Z,60.16
2019-05-09T11:48:51.748Z,59.70
2019-05-09T11:49:51.731Z,59.88
2019-05-09T11:50:51.723Z,60.85
2019-05-09T11:51:51.709Z,61.05
2019-05-09T11:52:51.699Z,58.44
2019-05-09T11:53:51.846Z,56.97
2019-05-09T11:54:51.676Z,57.17
2019-05-09T11:55:51.671Z,55.00
2019-05-09T11:56:51.648Z,57.85
2019-05-09T11:57:51.637Z,56.54
2019-05-09T11:58:51.648Z,55.54
2019-05-09T11:59:51.621Z,55.94
2019-05-09T12:00:51.613Z,56.09
2019-05-09T12:01:51.605Z,55.35
2019-05-09T12:02:51.592Z,56.66
2019-05-09T12:03:52.468Z,54.75
2019-05-09T12:04:51.587Z,54.10
2019-05-09T12:05:51.557Z,55.38
2019-05-09T12:06:51.587Z,55.18
2019-05-09T12:07:51.530Z,53.30
2019-05-09T12:08:51.530Z,54.08
2019-05-09T12:09:51.568Z,54.96
2019-05-09T12:10:51.497Z,53.72
2019-05-09T12:11:51.517Z,54.58
2019-05-09T12:12:51.482Z,53.95
2019-05-09T12:13:51.478Z,53.37
2019-05-09T12:14:51.482Z,53.47
2019-05-09T12:15:51.473Z,52.77
2019-05-09T12:16:51.437Z,52.64
2019-05-09T12:17:58.471Z,53.14
2019-05-09T12:18:52.464Z,52.01
2019-05-09T12:19:51.418Z,51.87
2019-05-09T12:20:51.411Z,50.47
2019-05-09T12:21:51.394Z,48.10
2019-05-09T12:22:51.380Z,45.82
2019-05-09T12:23:51.385Z,44.06
2019-05-09T12:24:53.833Z,41.08
2019-05-09T12:25:51.343Z,42.23
2019-05-09T12:26:51.358Z,44.05
2019-05-09T12:27:51.388Z,42.99
2019-05-09T12:28:51.379Z,42.21
2019-05-09T12:29:51.306Z,40.96
2019-05-09T12:30:51.313Z,39.55
2019-05-09T12:31:51.290Z,39.59
2019-05-09T12:32:51.289Z,40.52
2019-05-09T12:33:51.268Z,39.79
2019-05-09T12:34:51.255Z,39.65
2019-05-09T12:35:51.262Z,39.06
2019-05-09T12:36:51.243Z,39.37
2019-05-09T12:37:51.226Z,40.05
2019-05-09T12:38:51.283Z,41.17
2019-05-09T12:39:51.203Z,43.11
2019-05-09T12:40:51.219Z,43.03
2019-05-09T12:41:51.188Z,43.31
2019-05-09T12:42:51.170Z,45.35
2019-05-09T12:43:51.159Z,47.57
2019-05-09T12:44:51.184Z,47.07
2019-05-09T12:45:51.174Z,45.79
2019-05-09T12:46:51.142Z,48.22
2019-05-09T12:48:06.179Z,48.90
2019-05-09T12:48:52.144Z,47.44
2019-05-09T12:49:51.101Z,49.39
2019-05-09T12:50:51.119Z,51.21
2019-05-09T12:51:51.080Z,52.92
2019-05-09T12:52:51.073Z,53.02
2019-05-09T12:53:51.063Z,53.37
2019-05-09T12:54:51.057Z,47.55
2019-05-09T12:55:51.064Z,47.31
2019-05-09T12:56:51.045Z,48.07